sensor_id;sensor_type;location;lat;lon;timestamp;P1;durP1;ratioP1;P2;durP2;ratioP2
19059;SDS011;9663;48.996;8.334;2022-08-03T00:00:04;3.10;;;0.90;;
19059;SDS011;9663;48.996;8.334;2022-08-03T00:02:31;2.65;;;1.13;;
19059;SDS011;9663;48.996;8.334;2022-08-03T00:04:57;2.33;;;0.90;;
19059;SDS011;9663;48.996;8.334;2022-08-03T00:07:23;2.50;;;1.00;;
19059;SDS011;9663;48.996;8.334;2022-08-03T00:09:48;3.25;;;1.10;;
19059;SDS011;9663;48.996;8.334;2022-08-03T00:12:14;2.47;;;0.80;;
19059;SDS011;9663;48.996;8.334;2022-08-03T00:14:40;2.92;;;1.00;;
19059;SDS011;9663;48.996;8.334;2022-08-03T00:17:06;2.85;;;1.00;;
19059;SDS011;9663;48.996;8.334;2022-08-03T00:19:32;2.25;;;0.90;;
19059;SDS011;9663;48.996;8.334;2022-08-03T00:21:57;3.67;;;1.35;;
19059;SDS011;9663;48.996;8.334;2022-08-03T00:24:23;2.33;;;0.90;;
19059;SDS011;9663;48.996;8.334;2022-08-03T00:26:49;2.28;;;0.90;;
19059;SDS011;9663;48.996;8.334;2022-08-03T00:29:14;2.65;;;1.10;;
19059;SDS011;9663;48.996;8.334;2022-08-03T00:31:40;2.53;;;1.05;;
19059;SDS011;9663;48.996;8.334;2022-08-03T00:34:06;2.55;;;1.00;;
19059;SDS011;9663;48.996;8.334;2022-08-03T00:36:31;3.28;;;1.08;;
19059;SDS011;9663;48.996;8.334;2022-08-03T00:38:57;2.75;;;1.20;;
19059;SDS011;9663;48.996;8.334;2022-08-03T00:41:23;2.45;;;1.05;;
19059;SDS011;9663;48.996;8.334;2022-08-03T00:43:48;2.80;;;1.00;;
19059;SDS011;9663;48.996;8.334;2022-08-03T00:46:14;3.30;;;1.00;;
19059;SDS011;9663;48.996;8.334;2022-08-03T00:48:40;1.88;;;0.82;;
19059;SDS011;9663;48.996;8.334;2022-08-03T00:51:05;2.50;;;0.98;;
19059;SDS011;9663;48.996;8.334;2022-08-03T00:53:31;2.42;;;1.00;;
19059;SDS011;9663;48.996;8.334;2022-08-03T00:56:00;2.92;;;1.10;;
19059;SDS011;9663;48.996;8.334;2022-08-03T00:58:26;3.17;;;1.23;;
19059;SDS011;9663;48.996;8.334;2022-08-03T01:00:51;2.67;;;1.10;;
19059;SDS011;9663;48.996;8.334;2022-08-03T01:03:17;3.05;;;1.10;;
19059;SDS011;9663;48.996;8.334;2022-08-03T01:08:43;2.90;;;1.20;;
19059;SDS011;9663;48.996;8.334;2022-08-03T01:14:02;3.17;;;1.15;;
19059;SDS011;9663;48.996;8.334;2022-08-03T01:16:54;2.95;;;1.17;;
19059;SDS011;9663;48.996;8.334;2022-08-03T01:28:15;2.08;;;0.95;;
19059;SDS011;9663;48.996;8.334;2022-08-03T01:31:00;4.10;;;1.10;;
19059;SDS011;9663;48.996;8.334;2022-08-03T01:33:35;3.53;;;1.15;;
19059;SDS011;9663;48.996;8.334;2022-08-03T01:36:08;2.42;;;0.90;;
19059;SDS011;9663;48.996;8.334;2022-08-03T01:38:40;4.00;;;1.10;;
19059;SDS011;9663;48.996;8.334;2022-08-03T01:41:14;2.75;;;1.20;;
19059;SDS011;9663;48.996;8.334;2022-08-03T01:43:46;2.78;;;0.95;;
19059;SDS011;9663;48.996;8.334;2022-08-03T01:46:16;2.63;;;1.13;;
19059;SDS011;9663;48.996;8.334;2022-08-03T01:48:44;2.70;;;1.10;;
19059;SDS011;9663;48.996;8.334;2022-08-03T01:51:14;2.97;;;0.90;;
19059;SDS011;9663;48.996;8.334;2022-08-03T01:53:43;3.08;;;1.10;;
19059;SDS011;9663;48.996;8.334;2022-08-03T01:56:10;3.50;;;0.98;;
19059;SDS011;9663;48.996;8.334;2022-08-03T01:58:38;2.47;;;1.00;;
19059;SDS011;9663;48.996;8.334;2022-08-03T02:01:07;2.42;;;1.02;;
19059;SDS011;9663;48.996;8.334;2022-08-03T02:03:35;2.38;;;0.98;;
19059;SDS011;9663;48.996;8.334;2022-08-03T02:06:06;4.03;;;1.17;;
19059;SDS011;9663;48.996;8.334;2022-08-03T02:08:36;2.60;;;1.00;;
19059;SDS011;9663;48.996;8.334;2022-08-03T02:11:04;2.85;;;1.10;;
19059;SDS011;9663;48.996;8.334;2022-08-03T02:13:32;2.53;;;0.90;;
19059;SDS011;9663;48.996;8.334;2022-08-03T02:16:00;2.67;;;1.10;;
19059;SDS011;9663;48.996;8.334;2022-08-03T02:18:28;2.28;;;1.05;;
19059;SDS011;9663;48.996;8.334;2022-08-03T02:20:58;2.80;;;1.10;;
19059;SDS011;9663;48.996;8.334;2022-08-03T02:23:27;2.65;;;1.15;;
19059;SDS011;9663;48.996;8.334;2022-08-03T02:25:56;2.47;;;0.88;;
19059;SDS011;9663;48.996;8.334;2022-08-03T02:28:33;3.17;;;1.23;;
19059;SDS011;9663;48.996;8.334;2022-08-03T02:31:04;3.67;;;0.98;;
19059;SDS011;9663;48.996;8.334;2022-08-03T02:33:38;2.95;;;1.10;;
19059;SDS011;9663;48.996;8.334;2022-08-03T02:36:10;3.22;;;1.00;;
19059;SDS011;9663;48.996;8.334;2022-08-03T02:38:40;2.55;;;1.05;;
19059;SDS011;9663;48.996;8.334;2022-08-03T02:41:10;2.58;;;1.00;;
19059;SDS011;9663;48.996;8.334;2022-08-03T02:43:42;2.95;;;1.10;;
19059;SDS011;9663;48.996;8.334;2022-08-03T02:46:12;2.40;;;1.00;;
19059;SDS011;9663;48.996;8.334;2022-08-03T02:48:43;2.75;;;0.98;;
19059;SDS011;9663;48.996;8.334;2022-08-03T02:51:12;2.50;;;1.00;;
19059;SDS011;9663;48.996;8.334;2022-08-03T02:53:40;2.90;;;1.08;;
19059;SDS011;9663;48.996;8.334;2022-08-03T02:56:09;3.33;;;1.13;;
19059;SDS011;9663;48.996;8.334;2022-08-03T02:58:37;3.85;;;1.42;;
19059;SDS011;9663;48.996;8.334;2022-08-03T03:01:07;3.17;;;1.17;;
19059;SDS011;9663;48.996;8.334;2022-08-03T03:03:33;3.63;;;1.45;;
19059;SDS011;9663;48.996;8.334;2022-08-03T03:06:01;4.03;;;1.25;;
19059;SDS011;9663;48.996;8.334;2022-08-03T03:08:28;3.03;;;1.20;;
19059;SDS011;9663;48.996;8.334;2022-08-03T03:10:55;2.97;;;1.13;;
19059;SDS011;9663;48.996;8.334;2022-08-03T03:13:25;3.17;;;1.30;;
19059;SDS011;9663;48.996;8.334;2022-08-03T03:15:56;2.83;;;1.05;;
19059;SDS011;9663;48.996;8.334;2022-08-03T03:18:28;2.40;;;1.00;;
19059;SDS011;9663;48.996;8.334;2022-08-03T03:20:58;3.53;;;1.40;;
19059;SDS011;9663;48.996;8.334;2022-08-03T03:23:27;2.65;;;1.17;;
19059;SDS011;9663;48.996;8.334;2022-08-03T03:25:55;2.83;;;1.13;;
19059;SDS011;9663;48.996;8.334;2022-08-03T03:28:23;2.83;;;1.30;;
19059;SDS011;9663;48.996;8.334;2022-08-03T03:30:49;3.10;;;1.45;;
19059;SDS011;9663;48.996;8.334;2022-08-03T03:33:15;3.40;;;1.38;;
19059;SDS011;9663;48.996;8.334;2022-08-03T03:35:42;3.15;;;1.30;;
19059;SDS011;9663;48.996;8.334;2022-08-03T03:38:10;4.07;;;1.55;;
19059;SDS011;9663;48.996;8.334;2022-08-03T03:40:36;3.05;;;1.15;;
19059;SDS011;9663;48.996;8.334;2022-08-03T03:43:06;3.20;;;1.30;;
19059;SDS011;9663;48.996;8.334;2022-08-03T03:45:34;3.20;;;1.17;;
19059;SDS011;9663;48.996;8.334;2022-08-03T03:48:00;5.25;;;1.10;;
19059;SDS011;9663;48.996;8.334;2022-08-03T03:50:29;3.03;;;1.30;;
19059;SDS011;9663;48.996;8.334;2022-08-03T03:52:56;3.38;;;1.23;;
19059;SDS011;9663;48.996;8.334;2022-08-03T03:55:23;3.00;;;1.30;;
19059;SDS011;9663;48.996;8.334;2022-08-03T03:57:48;3.45;;;1.33;;
19059;SDS011;9663;48.996;8.334;2022-08-03T04:00:15;3.20;;;1.30;;
19059;SDS011;9663;48.996;8.334;2022-08-03T04:02:45;2.50;;;1.05;;
19059;SDS011;9663;48.996;8.334;2022-08-03T04:05:12;3.42;;;1.50;;
19059;SDS011;9663;48.996;8.334;2022-08-03T04:08:08;3.50;;;1.45;;
19059;SDS011;9663;48.996;8.334;2022-08-03T04:16:19;6.82;;;1.67;;
19059;SDS011;9663;48.996;8.334;2022-08-03T04:18:51;4.78;;;1.30;;
19059;SDS011;9663;48.996;8.334;2022-08-03T04:21:23;3.75;;;1.50;;
19059;SDS011;9663;48.996;8.334;2022-08-03T04:23:51;3.58;;;1.40;;
19059;SDS011;9663;48.996;8.334;2022-08-03T04:26:25;3.33;;;1.20;;
19059;SDS011;9663;48.996;8.334;2022-08-03T04:28:55;3.30;;;1.30;;
19059;SDS011;9663;48.996;8.334;2022-08-03T04:31:23;2.92;;;1.15;;
19059;SDS011;9663;48.996;8.334;2022-08-03T04:33:51;4.03;;;1.33;;
19059;SDS011;9663;48.996;8.334;2022-08-03T04:36:19;3.50;;;1.50;;
19059;SDS011;9663;48.996;8.334;2022-08-03T04:39:03;3.17;;;1.30;;
19059;SDS011;9663;48.996;8.334;2022-08-03T04:41:34;3.47;;;1.10;;
19059;SDS011;9663;48.996;8.334;2022-08-03T04:44:02;3.13;;;1.17;;
19059;SDS011;9663;48.996;8.334;2022-08-03T04:46:34;3.15;;;1.33;;
19059;SDS011;9663;48.996;8.334;2022-08-03T04:49:04;3.67;;;1.45;;
19059;SDS011;9663;48.996;8.334;2022-08-03T04:51:30;3.30;;;1.20;;
19059;SDS011;9663;48.996;8.334;2022-08-03T04:53:58;2.95;;;1.15;;
19059;SDS011;9663;48.996;8.334;2022-08-03T04:56:25;3.08;;;1.30;;
19059;SDS011;9663;48.996;8.334;2022-08-03T04:58:51;3.42;;;1.45;;
19059;SDS011;9663;48.996;8.334;2022-08-03T05:01:17;3.10;;;1.30;;
19059;SDS011;9663;48.996;8.334;2022-08-03T05:03:44;3.33;;;1.33;;
19059;SDS011;9663;48.996;8.334;2022-08-03T05:06:11;3.20;;;1.10;;
19059;SDS011;9663;48.996;8.334;2022-08-03T05:08:36;3.05;;;1.30;;
19059;SDS011;9663;48.996;8.334;2022-08-03T05:11:03;3.50;;;1.30;;
19059;SDS011;9663;48.996;8.334;2022-08-03T05:13:29;3.15;;;1.20;;
19059;SDS011;9663;48.996;8.334;2022-08-03T05:15:55;3.17;;;1.33;;
19059;SDS011;9663;48.996;8.334;2022-08-03T05:18:20;3.83;;;1.45;;
19059;SDS011;9663;48.996;8.334;2022-08-03T05:20:46;3.05;;;1.25;;
19059;SDS011;9663;48.996;8.334;2022-08-03T05:23:12;3.20;;;1.30;;
19059;SDS011;9663;48.996;8.334;2022-08-03T05:25:37;3.28;;;1.52;;
19059;SDS011;9663;48.996;8.334;2022-08-03T05:28:03;3.03;;;1.10;;
19059;SDS011;9663;48.996;8.334;2022-08-03T05:30:29;3.28;;;1.20;;
19059;SDS011;9663;48.996;8.334;2022-08-03T05:32:58;3.03;;;1.30;;
19059;SDS011;9663;48.996;8.334;2022-08-03T05:35:24;3.38;;;1.13;;
19059;SDS011;9663;48.996;8.334;2022-08-03T05:37:50;2.92;;;1.08;;
19059;SDS011;9663;48.996;8.334;2022-08-03T05:40:16;3.58;;;1.40;;
19059;SDS011;9663;48.996;8.334;2022-08-03T05:42:41;3.60;;;1.35;;
19059;SDS011;9663;48.996;8.334;2022-08-03T05:45:07;3.28;;;1.30;;
19059;SDS011;9663;48.996;8.334;2022-08-03T05:47:38;3.25;;;1.30;;
19059;SDS011;9663;48.996;8.334;2022-08-03T05:50:11;3.78;;;1.45;;
19059;SDS011;9663;48.996;8.334;2022-08-03T05:52:38;3.28;;;1.27;;
19059;SDS011;9663;48.996;8.334;2022-08-03T05:55:05;3.00;;;1.15;;
19059;SDS011;9663;48.996;8.334;2022-08-03T05:57:32;3.30;;;1.40;;
19059;SDS011;9663;48.996;8.334;2022-08-03T05:59:58;3.60;;;1.63;;
19059;SDS011;9663;48.996;8.334;2022-08-03T06:02:25;4.03;;;1.67;;
19059;SDS011;9663;48.996;8.334;2022-08-03T06:04:51;4.57;;;1.75;;
19059;SDS011;9663;48.996;8.334;2022-08-03T06:07:17;3.17;;;1.40;;
19059;SDS011;9663;48.996;8.334;2022-08-03T06:09:43;2.80;;;1.20;;
19059;SDS011;9663;48.996;8.334;2022-08-03T06:12:08;3.83;;;1.40;;
19059;SDS011;9663;48.996;8.334;2022-08-03T06:14:34;6.05;;;1.30;;
19059;SDS011;9663;48.996;8.334;2022-08-03T06:17:00;3.40;;;1.30;;
19059;SDS011;9663;48.996;8.334;2022-08-03T06:19:25;4.95;;;1.40;;
19059;SDS011;9663;48.996;8.334;2022-08-03T06:21:51;2.55;;;1.08;;
19059;SDS011;9663;48.996;8.334;2022-08-03T06:24:17;3.40;;;1.50;;
19059;SDS011;9663;48.996;8.334;2022-08-03T06:26:43;3.55;;;1.33;;
19059;SDS011;9663;48.996;8.334;2022-08-03T06:29:08;2.80;;;1.20;;
19059;SDS011;9663;48.996;8.334;2022-08-03T06:31:34;3.10;;;1.25;;
19059;SDS011;9663;48.996;8.334;2022-08-03T06:34:01;3.60;;;1.30;;
19059;SDS011;9663;48.996;8.334;2022-08-03T06:36:28;3.22;;;1.00;;
19059;SDS011;9663;48.996;8.334;2022-08-03T06:38:55;2.92;;;1.20;;
19059;SDS011;9663;48.996;8.334;2022-08-03T06:41:25;3.05;;;1.27;;
19059;SDS011;9663;48.996;8.334;2022-08-03T06:43:51;2.95;;;1.15;;
19059;SDS011;9663;48.996;8.334;2022-08-03T06:46:18;2.75;;;1.10;;
19059;SDS011;9663;48.996;8.334;2022-08-03T06:48:44;2.67;;;1.10;;
19059;SDS011;9663;48.996;8.334;2022-08-03T06:51:10;3.78;;;1.20;;
19059;SDS011;9663;48.996;8.334;2022-08-03T06:53:36;4.00;;;1.25;;
19059;SDS011;9663;48.996;8.334;2022-08-03T06:56:06;2.58;;;1.00;;
19059;SDS011;9663;48.996;8.334;2022-08-03T06:58:32;3.72;;;1.10;;
19059;SDS011;9663;48.996;8.334;2022-08-03T07:00:58;3.20;;;1.20;;
19059;SDS011;9663;48.996;8.334;2022-08-03T07:03:25;2.70;;;1.00;;
19059;SDS011;9663;48.996;8.334;2022-08-03T07:05:51;2.55;;;0.93;;
19059;SDS011;9663;48.996;8.334;2022-08-03T07:08:16;2.83;;;1.02;;
19059;SDS011;9663;48.996;8.334;2022-08-03T07:10:43;4.10;;;1.10;;
19059;SDS011;9663;48.996;8.334;2022-08-03T07:13:09;2.72;;;1.02;;
19059;SDS011;9663;48.996;8.334;2022-08-03T07:15:36;3.35;;;1.30;;
19059;SDS011;9663;48.996;8.334;2022-08-03T07:18:02;3.10;;;1.02;;
19059;SDS011;9663;48.996;8.334;2022-08-03T07:20:28;2.78;;;1.13;;
19059;SDS011;9663;48.996;8.334;2022-08-03T07:22:54;2.80;;;1.10;;
19059;SDS011;9663;48.996;8.334;2022-08-03T07:25:20;3.30;;;1.17;;
19059;SDS011;9663;48.996;8.334;2022-08-03T07:27:46;2.90;;;0.98;;
19059;SDS011;9663;48.996;8.334;2022-08-03T07:30:13;4.65;;;1.10;;
19059;SDS011;9663;48.996;8.334;2022-08-03T07:32:40;3.15;;;1.40;;
19059;SDS011;9663;48.996;8.334;2022-08-03T07:35:08;2.58;;;1.13;;
19059;SDS011;9663;48.996;8.334;2022-08-03T07:37:35;2.92;;;1.25;;
19059;SDS011;9663;48.996;8.334;2022-08-03T07:40:02;2.97;;;1.20;;
19059;SDS011;9663;48.996;8.334;2022-08-03T07:42:29;3.80;;;1.27;;
19059;SDS011;9663;48.996;8.334;2022-08-03T07:44:56;3.10;;;1.20;;
19059;SDS011;9663;48.996;8.334;2022-08-03T07:47:27;2.90;;;1.10;;
19059;SDS011;9663;48.996;8.334;2022-08-03T07:49:55;2.00;;;0.82;;
19059;SDS011;9663;48.996;8.334;2022-08-03T07:52:21;2.45;;;0.85;;
19059;SDS011;9663;48.996;8.334;2022-08-03T07:55:06;4.38;;;1.30;;
19059;SDS011;9663;48.996;8.334;2022-08-03T07:57:32;3.75;;;1.00;;
19059;SDS011;9663;48.996;8.334;2022-08-03T07:59:59;2.92;;;1.02;;
19059;SDS011;9663;48.996;8.334;2022-08-03T08:02:25;2.60;;;1.08;;
19059;SDS011;9663;48.996;8.334;2022-08-03T08:04:51;2.88;;;1.15;;
19059;SDS011;9663;48.996;8.334;2022-08-03T08:07:16;3.03;;;1.10;;
19059;SDS011;9663;48.996;8.334;2022-08-03T08:09:42;4.75;;;1.33;;
19059;SDS011;9663;48.996;8.334;2022-08-03T08:12:08;3.05;;;1.25;;
19059;SDS011;9663;48.996;8.334;2022-08-03T08:14:36;3.10;;;1.10;;
19059;SDS011;9663;48.996;8.334;2022-08-03T08:17:02;3.50;;;1.35;;
19059;SDS011;9663;48.996;8.334;2022-08-03T08:19:28;3.20;;;1.30;;
19059;SDS011;9663;48.996;8.334;2022-08-03T08:21:54;2.92;;;1.13;;
19059;SDS011;9663;48.996;8.334;2022-08-03T08:24:20;3.13;;;1.35;;
19059;SDS011;9663;48.996;8.334;2022-08-03T08:26:46;3.47;;;1.17;;
19059;SDS011;9663;48.996;8.334;2022-08-03T08:29:11;4.43;;;1.20;;
19059;SDS011;9663;48.996;8.334;2022-08-03T08:31:37;3.72;;;1.30;;
19059;SDS011;9663;48.996;8.334;2022-08-03T08:34:03;3.05;;;1.30;;
19059;SDS011;9663;48.996;8.334;2022-08-03T08:36:31;3.22;;;1.20;;
19059;SDS011;9663;48.996;8.334;2022-08-03T08:38:58;3.25;;;1.45;;
19059;SDS011;9663;48.996;8.334;2022-08-03T08:41:24;3.40;;;1.33;;
19059;SDS011;9663;48.996;8.334;2022-08-03T08:43:49;3.35;;;1.23;;
19059;SDS011;9663;48.996;8.334;2022-08-03T08:46:15;3.42;;;1.40;;
19059;SDS011;9663;48.996;8.334;2022-08-03T08:48:44;4.47;;;1.30;;
19059;SDS011;9663;48.996;8.334;2022-08-03T08:51:12;3.33;;;1.50;;
19059;SDS011;9663;48.996;8.334;2022-08-03T08:53:40;2.92;;;1.02;;
19059;SDS011;9663;48.996;8.334;2022-08-03T08:56:12;4.05;;;1.20;;
19059;SDS011;9663;48.996;8.334;2022-08-03T08:58:41;2.70;;;1.17;;
19059;SDS011;9663;48.996;8.334;2022-08-03T09:01:13;2.60;;;1.10;;
19059;SDS011;9663;48.996;8.334;2022-08-03T09:03:41;3.35;;;1.10;;
19059;SDS011;9663;48.996;8.334;2022-08-03T09:06:07;3.10;;;1.33;;
19059;SDS011;9663;48.996;8.334;2022-08-03T09:08:32;3.00;;;1.17;;
19059;SDS011;9663;48.996;8.334;2022-08-03T09:10:58;5.13;;;1.38;;
19059;SDS011;9663;48.996;8.334;2022-08-03T09:13:24;2.83;;;1.25;;
19059;SDS011;9663;48.996;8.334;2022-08-03T09:18:52;2.47;;;1.08;;
19059;SDS011;9663;48.996;8.334;2022-08-03T09:21:20;2.90;;;1.20;;
19059;SDS011;9663;48.996;8.334;2022-08-03T09:23:53;2.95;;;1.20;;
19059;SDS011;9663;48.996;8.334;2022-08-03T09:26:22;2.90;;;1.10;;
19059;SDS011;9663;48.996;8.334;2022-08-03T09:31:38;3.38;;;1.35;;
19059;SDS011;9663;48.996;8.334;2022-08-03T09:34:08;2.63;;;1.25;;
19059;SDS011;9663;48.996;8.334;2022-08-03T09:36:40;4.85;;;1.38;;
19059;SDS011;9663;48.996;8.334;2022-08-03T09:39:10;3.60;;;1.38;;
19059;SDS011;9663;48.996;8.334;2022-08-03T09:42:07;4.03;;;1.40;;
19059;SDS011;9663;48.996;8.334;2022-08-03T09:44:37;2.65;;;1.30;;
19059;SDS011;9663;48.996;8.334;2022-08-03T09:47:06;4.22;;;1.40;;
19059;SDS011;9663;48.996;8.334;2022-08-03T09:49:35;5.90;;;1.42;;
19059;SDS011;9663;48.996;8.334;2022-08-03T09:52:10;3.95;;;1.40;;
19059;SDS011;9663;48.996;8.334;2022-08-03T09:54:42;5.38;;;1.30;;
19059;SDS011;9663;48.996;8.334;2022-08-03T09:57:19;3.15;;;1.13;;
19059;SDS011;9663;48.996;8.334;2022-08-03T09:59:48;3.92;;;1.50;;
19059;SDS011;9663;48.996;8.334;2022-08-03T10:02:20;4.13;;;1.33;;
19059;SDS011;9663;48.996;8.334;2022-08-03T10:04:48;4.45;;;1.23;;
19059;SDS011;9663;48.996;8.334;2022-08-03T10:07:16;4.07;;;1.02;;
19059;SDS011;9663;48.996;8.334;2022-08-03T10:09:54;3.38;;;1.30;;
19059;SDS011;9663;48.996;8.334;2022-08-03T10:12:23;3.40;;;1.20;;
19059;SDS011;9663;48.996;8.334;2022-08-03T10:14:50;3.53;;;1.40;;
19059;SDS011;9663;48.996;8.334;2022-08-03T10:17:17;3.20;;;1.20;;
19059;SDS011;9663;48.996;8.334;2022-08-03T10:19:47;3.75;;;1.40;;
19059;SDS011;9663;48.996;8.334;2022-08-03T10:22:23;3.13;;;1.25;;
19059;SDS011;9663;48.996;8.334;2022-08-03T10:24:58;2.55;;;1.20;;
19059;SDS011;9663;48.996;8.334;2022-08-03T10:27:33;2.60;;;1.00;;
19059;SDS011;9663;48.996;8.334;2022-08-03T10:30:04;2.45;;;1.00;;
19059;SDS011;9663;48.996;8.334;2022-08-03T10:35:22;2.85;;;0.93;;
19059;SDS011;9663;48.996;8.334;2022-08-03T10:40:25;3.03;;;1.10;;
19059;SDS011;9663;48.996;8.334;2022-08-03T10:42:55;3.72;;;1.40;;
19059;SDS011;9663;48.996;8.334;2022-08-03T10:45:37;3.33;;;1.20;;
19059;SDS011;9663;48.996;8.334;2022-08-03T10:48:06;2.40;;;1.08;;
19059;SDS011;9663;48.996;8.334;2022-08-03T10:50:33;2.72;;;1.00;;
19059;SDS011;9663;48.996;8.334;2022-08-03T10:53:03;2.42;;;1.00;;
19059;SDS011;9663;48.996;8.334;2022-08-03T11:01:02;1.98;;;0.90;;
19059;SDS011;9663;48.996;8.334;2022-08-03T11:03:29;2.17;;;0.90;;
19059;SDS011;9663;48.996;8.334;2022-08-03T11:06:13;2.38;;;1.00;;
19059;SDS011;9663;48.996;8.334;2022-08-03T11:08:43;2.55;;;0.93;;
19059;SDS011;9663;48.996;8.334;2022-08-03T11:16:42;2.40;;;0.95;;
19059;SDS011;9663;48.996;8.334;2022-08-03T11:19:43;2.35;;;1.00;;
19059;SDS011;9663;48.996;8.334;2022-08-03T11:22:18;1.98;;;0.88;;
19059;SDS011;9663;48.996;8.334;2022-08-03T11:35:11;1.73;;;0.77;;
19059;SDS011;9663;48.996;8.334;2022-08-03T11:48:34;2.30;;;0.90;;
19059;SDS011;9663;48.996;8.334;2022-08-03T11:51:04;2.03;;;0.98;;
19059;SDS011;9663;48.996;8.334;2022-08-03T11:53:42;2.70;;;1.10;;
19059;SDS011;9663;48.996;8.334;2022-08-03T11:56:08;3.17;;;1.05;;
19059;SDS011;9663;48.996;8.334;2022-08-03T11:58:34;2.33;;;0.93;;
19059;SDS011;9663;48.996;8.334;2022-08-03T12:01:03;2.50;;;1.10;;
19059;SDS011;9663;48.996;8.334;2022-08-03T12:03:31;2.35;;;1.02;;
19059;SDS011;9663;48.996;8.334;2022-08-03T12:05:58;2.80;;;1.10;;
19059;SDS011;9663;48.996;8.334;2022-08-03T12:10:52;1.90;;;1.00;;
19059;SDS011;9663;48.996;8.334;2022-08-03T12:13:20;2.28;;;0.98;;
19059;SDS011;9663;48.996;8.334;2022-08-03T12:15:54;2.58;;;0.98;;
19059;SDS011;9663;48.996;8.334;2022-08-03T12:18:23;2.08;;;0.90;;
19059;SDS011;9663;48.996;8.334;2022-08-03T12:20:50;2.17;;;0.90;;
19059;SDS011;9663;48.996;8.334;2022-08-03T12:23:26;2.30;;;1.00;;
19059;SDS011;9663;48.996;8.334;2022-08-03T12:25:53;2.42;;;1.00;;
19059;SDS011;9663;48.996;8.334;2022-08-03T12:28:33;2.47;;;1.10;;
19059;SDS011;9663;48.996;8.334;2022-08-03T12:31:05;2.70;;;1.00;;
19059;SDS011;9663;48.996;8.334;2022-08-03T12:33:53;2.30;;;1.02;;
19059;SDS011;9663;48.996;8.334;2022-08-03T12:36:31;3.13;;;1.30;;
19059;SDS011;9663;48.996;8.334;2022-08-03T12:39:00;1.95;;;0.90;;
19059;SDS011;9663;48.996;8.334;2022-08-03T12:41:36;2.25;;;1.02;;
19059;SDS011;9663;48.996;8.334;2022-08-03T12:44:05;2.80;;;1.10;;
19059;SDS011;9663;48.996;8.334;2022-08-03T12:49:10;2.50;;;1.20;;
19059;SDS011;9663;48.996;8.334;2022-08-03T12:54:08;1.60;;;0.80;;
19059;SDS011;9663;48.996;8.334;2022-08-03T12:59:29;2.17;;;1.00;;
19059;SDS011;9663;48.996;8.334;2022-08-03T13:01:55;2.25;;;1.00;;
19059;SDS011;9663;48.996;8.334;2022-08-03T13:04:26;2.83;;;1.05;;
19059;SDS011;9663;48.996;8.334;2022-08-03T13:07:01;2.83;;;1.30;;
19059;SDS011;9663;48.996;8.334;2022-08-03T13:09:41;2.42;;;1.15;;
19059;SDS011;9663;48.996;8.334;2022-08-03T13:12:17;2.03;;;1.13;;
19059;SDS011;9663;48.996;8.334;2022-08-03T13:14:49;2.38;;;1.10;;
19059;SDS011;9663;48.996;8.334;2022-08-03T13:17:17;2.45;;;0.98;;
19059;SDS011;9663;48.996;8.334;2022-08-03T13:19:43;2.60;;;1.10;;
19059;SDS011;9663;48.996;8.334;2022-08-03T13:24:41;2.30;;;1.05;;
19059;SDS011;9663;48.996;8.334;2022-08-03T13:27:08;3.03;;;1.25;;
19059;SDS011;9663;48.996;8.334;2022-08-03T13:29:35;2.42;;;1.10;;
19059;SDS011;9663;48.996;8.334;2022-08-03T13:32:01;2.25;;;1.10;;
19059;SDS011;9663;48.996;8.334;2022-08-03T13:34:28;2.13;;;1.02;;
19059;SDS011;9663;48.996;8.334;2022-08-03T13:36:54;2.42;;;1.10;;
19059;SDS011;9663;48.996;8.334;2022-08-03T13:39:19;2.00;;;1.10;;
19059;SDS011;9663;48.996;8.334;2022-08-03T13:41:45;2.72;;;1.10;;
19059;SDS011;9663;48.996;8.334;2022-08-03T13:44:11;1.98;;;1.00;;
19059;SDS011;9663;48.996;8.334;2022-08-03T13:46:37;2.50;;;1.10;;
19059;SDS011;9663;48.996;8.334;2022-08-03T13:49:04;2.60;;;1.20;;
19059;SDS011;9663;48.996;8.334;2022-08-03T13:51:30;2.92;;;1.25;;
19059;SDS011;9663;48.996;8.334;2022-08-03T13:53:57;2.30;;;1.08;;
19059;SDS011;9663;48.996;8.334;2022-08-03T13:56:26;3.03;;;1.30;;
19059;SDS011;9663;48.996;8.334;2022-08-03T13:58:53;2.83;;;1.10;;
19059;SDS011;9663;48.996;8.334;2022-08-03T14:01:19;2.00;;;1.00;;
19059;SDS011;9663;48.996;8.334;2022-08-03T14:03:45;2.58;;;1.20;;
19059;SDS011;9663;48.996;8.334;2022-08-03T14:06:13;2.40;;;1.08;;
19059;SDS011;9663;48.996;8.334;2022-08-03T14:08:39;2.35;;;1.10;;
19059;SDS011;9663;48.996;8.334;2022-08-03T14:11:04;2.50;;;1.13;;
19059;SDS011;9663;48.996;8.334;2022-08-03T14:13:30;2.50;;;1.17;;
19059;SDS011;9663;48.996;8.334;2022-08-03T14:15:56;2.08;;;1.00;;
19059;SDS011;9663;48.996;8.334;2022-08-03T14:18:22;3.93;;;1.40;;
19059;SDS011;9663;48.996;8.334;2022-08-03T14:20:48;3.08;;;1.40;;
19059;SDS011;9663;48.996;8.334;2022-08-03T14:23:14;2.75;;;1.30;;
19059;SDS011;9663;48.996;8.334;2022-08-03T14:25:40;3.13;;;1.30;;
19059;SDS011;9663;48.996;8.334;2022-08-03T14:28:07;2.50;;;1.20;;
19059;SDS011;9663;48.996;8.334;2022-08-03T14:30:33;2.42;;;1.10;;
19059;SDS011;9663;48.996;8.334;2022-08-03T14:32:59;2.88;;;1.40;;
19059;SDS011;9663;48.996;8.334;2022-08-03T14:35:25;2.83;;;1.30;;
19059;SDS011;9663;48.996;8.334;2022-08-03T14:37:50;2.45;;;1.17;;
19059;SDS011;9663;48.996;8.334;2022-08-03T14:40:19;2.38;;;1.10;;
19059;SDS011;9663;48.996;8.334;2022-08-03T14:42:45;2.45;;;1.20;;
19059;SDS011;9663;48.996;8.334;2022-08-03T14:45:11;2.47;;;1.20;;
19059;SDS011;9663;48.996;8.334;2022-08-03T14:47:38;2.88;;;1.30;;
19059;SDS011;9663;48.996;8.334;2022-08-03T14:50:04;3.00;;;1.40;;
19059;SDS011;9663;48.996;8.334;2022-08-03T14:52:31;2.72;;;1.40;;
19059;SDS011;9663;48.996;8.334;2022-08-03T14:54:58;2.58;;;1.30;;
19059;SDS011;9663;48.996;8.334;2022-08-03T14:57:24;2.55;;;1.23;;
19059;SDS011;9663;48.996;8.334;2022-08-03T14:59:50;2.22;;;1.23;;
19059;SDS011;9663;48.996;8.334;2022-08-03T15:02:16;1.90;;;1.10;;
19059;SDS011;9663;48.996;8.334;2022-08-03T15:04:43;2.88;;;1.20;;
19059;SDS011;9663;48.996;8.334;2022-08-03T15:07:08;2.95;;;1.40;;
19059;SDS011;9663;48.996;8.334;2022-08-03T15:09:34;2.63;;;1.38;;
19059;SDS011;9663;48.996;8.334;2022-08-03T15:12:01;2.90;;;1.40;;
19059;SDS011;9663;48.996;8.334;2022-08-03T15:14:28;2.70;;;1.25;;
19059;SDS011;9663;48.996;8.334;2022-08-03T15:16:54;2.92;;;1.60;;
19059;SDS011;9663;48.996;8.334;2022-08-03T15:19:19;3.80;;;2.40;;
19059;SDS011;9663;48.996;8.334;2022-08-03T15:21:45;3.38;;;1.73;;
19059;SDS011;9663;48.996;8.334;2022-08-03T15:24:11;3.30;;;1.70;;
19059;SDS011;9663;48.996;8.334;2022-08-03T15:26:36;3.00;;;1.60;;
19059;SDS011;9663;48.996;8.334;2022-08-03T15:29:02;2.83;;;1.50;;
19059;SDS011;9663;48.996;8.334;2022-08-03T15:31:28;3.50;;;1.65;;
19059;SDS011;9663;48.996;8.334;2022-08-03T15:33:53;2.97;;;1.50;;
19059;SDS011;9663;48.996;8.334;2022-08-03T15:36:19;2.42;;;1.40;;
19059;SDS011;9663;48.996;8.334;2022-08-03T15:38:45;2.95;;;1.50;;
19059;SDS011;9663;48.996;8.334;2022-08-03T15:41:11;3.22;;;1.63;;
19059;SDS011;9663;48.996;8.334;2022-08-03T15:43:38;5.38;;;1.60;;
19059;SDS011;9663;48.996;8.334;2022-08-03T15:46:04;2.45;;;1.30;;
19059;SDS011;9663;48.996;8.334;2022-08-03T15:48:30;2.58;;;1.48;;
19059;SDS011;9663;48.996;8.334;2022-08-03T15:50:56;3.55;;;1.60;;
19059;SDS011;9663;48.996;8.334;2022-08-03T15:53:21;2.40;;;1.40;;
19059;SDS011;9663;48.996;8.334;2022-08-03T15:55:47;2.92;;;1.60;;
19059;SDS011;9663;48.996;8.334;2022-08-03T15:58:13;2.88;;;1.50;;
19059;SDS011;9663;48.996;8.334;2022-08-03T16:00:38;3.92;;;1.50;;
19059;SDS011;9663;48.996;8.334;2022-08-03T16:03:05;2.88;;;1.40;;
19059;SDS011;9663;48.996;8.334;2022-08-03T16:05:31;2.33;;;1.30;;
19059;SDS011;9663;48.996;8.334;2022-08-03T16:07:57;3.67;;;1.42;;
19059;SDS011;9663;48.996;8.334;2022-08-03T16:10:23;2.45;;;1.40;;
19059;SDS011;9663;48.996;8.334;2022-08-03T16:12:52;2.78;;;1.40;;
19059;SDS011;9663;48.996;8.334;2022-08-03T16:15:18;2.95;;;1.50;;
19059;SDS011;9663;48.996;8.334;2022-08-03T16:17:44;3.22;;;1.65;;
19059;SDS011;9663;48.996;8.334;2022-08-03T16:20:10;3.33;;;1.52;;
19059;SDS011;9663;48.996;8.334;2022-08-03T16:22:44;3.83;;;1.48;;